createdAt,value
2022-12-11T00:00:48.892Z,62.95
2022-12-11T00:03:18.616Z,62.05
2022-12-11T00:05:45.852Z,61.71
2022-12-11T00:08:13.061Z,62.15
2022-12-11T00:10:39.628Z,64.04
2022-12-11T00:13:06.140Z,63.28
2022-12-11T00:15:32.587Z,61.85
2022-12-11T00:17:59.053Z,63.87
2022-12-11T00:20:25.745Z,64.03
2022-12-11T00:23:02.402Z,63.25
2022-12-11T00:25:29.159Z,62.42
2022-12-11T00:27:55.649Z,62.09
2022-12-11T00:30:22.111Z,62.82
2022-12-11T00:32:48.526Z,63.18
2022-12-11T00:35:14.987Z,64.04
2022-12-11T00:37:41.577Z,63.91
2022-12-11T00:40:08.727Z,63.41
2022-12-11T00:42:35.360Z,62.53
2022-12-11T00:45:01.833Z,63.44
2022-12-11T00:47:28.514Z,64.93
2022-12-11T00:49:55.054Z,65.44
2022-12-11T00:52:21.724Z,63.47
2022-12-11T00:54:48.167Z,62.73
2022-12-11T00:57:14.635Z,65.23
2022-12-11T00:59:41.093Z,65.22
2022-12-11T01:02:07.569Z,64.81
2022-12-11T01:04:36.401Z,65.66
2022-12-11T01:07:03.369Z,65.23
2022-12-11T01:09:48.444Z,64.48
2022-12-11T01:12:14.940Z,64.57
2022-12-11T01:14:41.634Z,62.95
2022-12-11T01:17:08.150Z,62.68
2022-12-11T01:19:34.647Z,62.17
2022-12-11T01:22:01.117Z,62.60
2022-12-11T01:24:27.958Z,61.73
2022-12-11T01:26:54.400Z,61.18
2022-12-11T01:29:20.942Z,63.06
2022-12-11T01:31:47.364Z,61.97
2022-12-11T01:34:13.821Z,61.77
2022-12-11T01:36:40.263Z,62.74
2022-12-11T01:39:06.717Z,60.99
2022-12-11T01:41:33.495Z,62.36
2022-12-11T01:44:02.981Z,61.76
2022-12-11T01:46:30.724Z,62.50
2022-12-11T01:48:58.099Z,65.00
2022-12-11T01:51:24.833Z,66.48
2022-12-11T01:54:04.024Z,65.86
2022-12-11T01:56:31.567Z,64.57
2022-12-11T01:59:06.624Z,64.84
2022-12-11T02:01:54.395Z,64.26
2022-12-11T02:04:21.079Z,63.25
2022-12-11T02:06:49.349Z,65.07
2022-12-11T02:09:27.436Z,65.29
2022-12-11T02:12:03.109Z,66.59
2022-12-11T02:14:47.865Z,66.76
2022-12-11T02:17:21.665Z,66.72
2022-12-11T02:20:10.110Z,68.07
2022-12-11T02:22:39.554Z,66.22
2022-12-11T02:25:41.937Z,67.60
2022-12-11T02:28:11.336Z,66.37
2022-12-11T02:30:39.856Z,66.38
2022-12-11T02:33:07.558Z,66.28
2022-12-11T02:35:38.530Z,66.59
2022-12-11T02:38:12.637Z,65.14
2022-12-11T02:40:40.980Z,63.59
2022-12-11T02:43:10.411Z,63.06
2022-12-11T02:45:38.489Z,62.62
2022-12-11T02:48:06.108Z,62.03
2022-12-11T02:50:33.840Z,62.43
2022-12-11T02:53:01.361Z,61.59
2022-12-11T02:55:29.630Z,60.57
2022-12-11T02:58:20.089Z,60.32
2022-12-11T03:00:46.791Z,60.12
2022-12-11T03:03:13.635Z,59.41
2022-12-11T03:05:40.879Z,59.94
2022-12-11T03:08:07.447Z,59.79
2022-12-11T03:10:34.100Z,60.50
2022-12-11T03:13:01.220Z,61.08
2022-12-11T03:15:34.300Z,61.13
2022-12-11T03:18:07.982Z,60.86
2022-12-11T03:20:36.604Z,59.86
2022-12-11T03:23:17.841Z,59.83
2022-12-11T03:25:54.575Z,59.33
2022-12-11T03:28:29.450Z,60.48
2022-12-11T03:30:56.793Z,58.67
2022-12-11T03:33:38.469Z,59.43
2022-12-11T03:36:11.291Z,58.72
2022-12-11T03:38:42.634Z,57.86
2022-12-11T03:41:10.625Z,57.55
2022-12-11T03:43:37.743Z,57.69
2022-12-11T03:46:04.822Z,57.54
2022-12-11T03:48:34.117Z,57.12
2022-12-11T03:51:02.237Z,56.79
2022-12-11T03:53:28.732Z,56.24
2022-12-11T03:55:58.140Z,55.96
2022-12-11T03:58:24.767Z,55.43
2022-12-11T04:00:51.267Z,56.33
2022-12-11T04:03:18.010Z,56.56
2022-12-11T04:05:49.868Z,56.01
2022-12-11T04:08:17.274Z,55.65
2022-12-11T04:10:44.216Z,55.30
2022-12-11T04:13:10.778Z,55.42
2022-12-11T04:15:37.850Z,55.05
2022-12-11T04:18:23.542Z,54.85
2022-12-11T04:21:08.696Z,55.08
2022-12-11T04:23:53.813Z,55.00
2022-12-11T04:26:20.645Z,54.95
2022-12-11T04:28:48.455Z,54.82
2022-12-11T04:31:20.144Z,54.46
2022-12-11T04:33:47.281Z,54.54
2022-12-11T04:36:14.552Z,54.94
2022-12-11T04:38:41.545Z,54.86
2022-12-11T04:41:12.706Z,55.25
2022-12-11T04:43:39.364Z,55.67
2022-12-11T04:46:10.179Z,55.84
2022-12-11T04:48:37.035Z,55.68
2022-12-11T04:51:03.746Z,55.57
2022-12-11T04:53:31.116Z,55.41
2022-12-11T04:55:57.681Z,55.74
2022-12-11T04:58:25.160Z,55.36
2022-12-11T05:00:51.886Z,55.71
2022-12-11T05:03:18.596Z,55.72
2022-12-11T05:05:50.616Z,55.34
2022-12-11T05:08:18.139Z,55.13
2022-12-11T05:10:49.928Z,55.23
2022-12-11T05:13:16.669Z,55.50
2022-12-11T05:15:43.746Z,55.69
2022-12-11T05:18:10.206Z,55.21
2022-12-11T05:20:36.608Z,55.83
2022-12-11T05:23:03.193Z,56.05
2022-12-11T05:25:29.779Z,56.45
2022-12-11T05:27:56.233Z,56.64
2022-12-11T05:30:22.689Z,56.39
2022-12-11T05:32:49.333Z,56.45
2022-12-11T05:35:15.973Z,56.56
2022-12-11T05:37:42.418Z,56.92
2022-12-11T05:40:10.314Z,56.78
2022-12-11T05:42:36.816Z,57.32
2022-12-11T05:45:04.858Z,57.63
2022-12-11T05:47:31.611Z,57.35
2022-12-11T05:49:58.708Z,57.24
2022-12-11T05:52:25.148Z,57.18
2022-12-11T05:54:51.669Z,57.02
2022-12-11T05:57:18.093Z,57.16
2022-12-11T05:59:45.223Z,57.84
2022-12-11T06:02:11.751Z,57.85
2022-12-11T06:04:38.306Z,57.85
2022-12-11T06:07:04.981Z,58.79
2022-12-11T06:09:31.421Z,58.21
2022-12-11T06:11:57.890Z,58.16
2022-12-11T06:14:24.315Z,59.00
2022-12-11T06:16:50.839Z,59.18
2022-12-11T06:19:18.452Z,59.64
2022-12-11T06:21:45.750Z,58.92
2022-12-11T06:24:12.752Z,58.84
2022-12-11T06:26:39.279Z,58.86
2022-12-11T06:29:09.164Z,59.19
2022-12-11T06:31:38.906Z,58.16
2022-12-11T06:34:05.995Z,58.05
2022-12-11T06:36:32.720Z,58.49
2022-12-11T06:38:59.178Z,57.96
2022-12-11T06:41:25.965Z,58.26
2022-12-11T06:43:52.553Z,58.26
2022-12-11T06:46:20.085Z,57.97
2022-12-11T06:48:47.631Z,58.21
2022-12-11T06:51:16.266Z,57.99
2022-12-11T06:53:42.774Z,58.00
2022-12-11T06:56:11.569Z,59.06
2022-12-11T06:58:38.572Z,58.39
2022-12-11T07:01:12.558Z,59.32
2022-12-11T07:03:39.202Z,59.30
2022-12-11T07:06:05.814Z,59.31
2022-12-11T07:08:32.466Z,60.76
2022-12-11T07:11:07.489Z,60.48
2022-12-11T07:13:34.070Z,60.70
2022-12-11T07:16:01.864Z,60.16
2022-12-11T07:18:28.548Z,59.72
2022-12-11T07:20:58.258Z,59.37
2022-12-11T07:23:24.785Z,59.44
2022-12-11T07:25:51.272Z,58.94
2022-12-11T07:28:17.716Z,58.63
2022-12-11T07:30:44.357Z,58.65
2022-12-11T07:33:11.046Z,59.19
2022-12-11T07:35:37.830Z,58.96
2022-12-11T07:38:04.353Z,58.43
2022-12-11T07:40:31.571Z,58.06
2022-12-11T07:42:58.034Z,58.34
2022-12-11T07:45:26.318Z,57.80
2022-12-11T07:47:53.028Z,58.39
2022-12-11T07:50:19.753Z,58.54
2022-12-11T07:52:46.230Z,57.86
2022-12-11T07:55:13.074Z,57.86
2022-12-11T07:57:39.704Z,57.71
2022-12-11T08:00:06.963Z,57.94
2022-12-11T08:02:37.242Z,57.97
2022-12-11T08:05:04.970Z,58.09
2022-12-11T08:07:34.338Z,59.10
2022-12-11T08:10:01.516Z,59.05
2022-12-11T08:12:28.008Z,60.39
2022-12-11T08:14:54.581Z,59.72
2022-12-11T08:17:25.885Z,60.35
2022-12-11T08:19:55.466Z,60.53
2022-12-11T08:22:21.916Z,59.33
2022-12-11T08:24:48.355Z,59.11
2022-12-11T08:27:14.834Z,58.37
2022-12-11T08:29:41.279Z,58.34
2022-12-11T08:32:12.320Z,58.25
2022-12-11T08:34:39.304Z,58.32
2022-12-11T08:37:05.793Z,57.67
2022-12-11T08:39:32.269Z,58.10
2022-12-11T08:41:58.733Z,57.54
2022-12-11T08:44:26.799Z,57.24
2022-12-11T08:46:53.311Z,57.12
2022-12-11T08:49:19.899Z,56.86
2022-12-11T08:51:46.358Z,58.22
2022-12-11T08:54:12.853Z,58.52
2022-12-11T08:56:39.338Z,58.47
2022-12-11T08:59:06.263Z,57.30
2022-12-11T09:01:33.350Z,57.86
2022-12-11T09:03:59.905Z,58.64
2022-12-11T09:06:29.404Z,58.76
2022-12-11T09:08:59.638Z,58.20
2022-12-11T09:11:28.860Z,57.59
2022-12-11T09:13:55.745Z,57.37
2022-12-11T09:16:24.583Z,56.74
2022-12-11T09:18:52.252Z,57.06
2022-12-11T09:21:21.198Z,56.76
2022-12-11T09:23:48.061Z,56.61
2022-12-11T09:26:17.755Z,57.64
2022-12-11T09:28:46.835Z,57.06
2022-12-11T09:31:35.125Z,58.64
2022-12-11T09:34:05.336Z,57.80
2022-12-11T09:36:32.308Z,58.09
2022-12-11T09:39:04.002Z,57.82
2022-12-11T09:41:40.845Z,57.80
2022-12-11T09:44:13.326Z,57.62
2022-12-11T09:46:40.712Z,57.59
2022-12-11T09:49:19.437Z,56.82
2022-12-11T09:52:09.210Z,57.49
2022-12-11T09:54:35.854Z,57.03
2022-12-11T09:57:07.473Z,57.93
2022-12-11T09:59:40.865Z,57.63
2022-12-11T10:02:33.074Z,58.53
2022-12-11T10:05:17.709Z,59.29
2022-12-11T10:08:08.584Z,57.88
2022-12-11T10:10:57.818Z,56.96
2022-12-11T10:13:42.978Z,56.79
2022-12-11T10:16:35.738Z,57.04
2022-12-11T10:19:03.537Z,55.65
2022-12-11T10:21:37.737Z,54.97
2022-12-11T10:24:05.957Z,54.65
2022-12-11T10:26:32.392Z,54.65
2022-12-11T10:29:00.737Z,54.41
2022-12-11T10:31:57.254Z,54.70
2022-12-11T10:34:34.515Z,55.35
2022-12-11T10:37:01.457Z,55.43
2022-12-11T10:39:28.327Z,54.88
2022-12-11T10:41:56.148Z,55.40
2022-12-11T10:44:28.497Z,54.72
2022-12-11T10:47:10.579Z,53.61
2022-12-11T10:49:38.680Z,53.25
2022-12-11T10:52:20.311Z,54.00
2022-12-11T10:54:49.104Z,54.12
2022-12-11T10:57:16.021Z,55.82
2022-12-11T10:59:47.393Z,55.28
2022-12-11T11:02:21.352Z,54.89
2022-12-11T11:04:48.416Z,54.52
2022-12-11T11:07:22.397Z,54.99
2022-12-11T11:09:49.905Z,56.43
2022-12-11T11:12:27.439Z,58.30
2022-12-11T11:15:15.761Z,57.10
2022-12-11T11:17:52.962Z,57.86
2022-12-11T11:20:27.613Z,56.88
2022-12-11T11:22:57.064Z,57.33
2022-12-11T11:25:28.876Z,57.19
2022-12-11T11:28:02.674Z,57.13
2022-12-11T11:30:33.514Z,58.30
2022-12-11T11:33:04.566Z,58.51
2022-12-11T11:35:32.948Z,57.82
2022-12-11T11:38:12.817Z,56.84
2022-12-11T11:41:04.255Z,56.26
2022-12-11T11:43:59.686Z,56.82
2022-12-11T11:46:49.188Z,56.60
2022-12-11T11:49:36.024Z,55.77
2022-12-11T11:52:19.568Z,55.33
2022-12-11T11:54:55.165Z,56.41
2022-12-11T11:57:35.817Z,55.92
2022-12-11T12:00:10.723Z,56.34
2022-12-11T12:02:37.648Z,56.87
2022-12-11T12:05:04.463Z,57.11
2022-12-11T12:07:43.226Z,58.28
2022-12-11T12:10:31.595Z,57.83
2022-12-11T12:13:03.460Z,56.57
2022-12-11T12:15:56.199Z,56.24
2022-12-11T12:18:34.284Z,55.91
2022-12-11T12:21:24.496Z,55.52
2022-12-11T12:23:50.975Z,56.21
2022-12-11T12:26:41.404Z,57.78
2022-12-11T12:29:28.579Z,57.85
2022-12-11T12:32:20.273Z,56.21
2022-12-11T12:34:55.914Z,56.29
2022-12-11T12:37:38.123Z,55.35
2022-12-11T12:40:19.721Z,54.61
2022-12-11T12:43:28.861Z,54.55
2022-12-11T12:46:04.252Z,55.29
2022-12-11T12:48:30.943Z,55.44
2022-12-11T12:50:57.718Z,54.91
2022-12-11T12:53:27.795Z,54.96
2022-12-11T12:55:54.473Z,55.46
2022-12-11T12:58:39.569Z,54.81
2022-12-11T13:01:20.236Z,55.96
2022-12-11T13:04:02.141Z,56.30
2022-12-11T13:06:39.410Z,55.45
2022-12-11T13:09:18.071Z,55.47
2022-12-11T13:11:46.610Z,54.93
2022-12-11T13:14:16.112Z,54.56
2022-12-11T13:16:47.185Z,54.16
2022-12-11T13:19:22.768Z,54.21
2022-12-11T13:22:03.082Z,54.08
2022-12-11T13:24:32.636Z,53.71
2022-12-11T13:27:24.081Z,54.46
2022-12-11T13:29:50.625Z,53.96
2022-12-11T13:32:17.348Z,54.47
2022-12-11T13:34:58.982Z,54.00
2022-12-11T13:37:38.252Z,54.39
2022-12-11T13:40:29.987Z,53.32
2022-12-11T13:43:00.093Z,53.09
2022-12-11T13:45:37.242Z,52.84
2022-12-11T13:48:04.974Z,53.57
2022-12-11T13:50:33.393Z,54.68
2022-12-11T13:53:01.530Z,55.46
2022-12-11T13:55:31.501Z,55.09
2022-12-11T13:57:58.481Z,54.40
2022-12-11T14:00:32.100Z,54.01
2022-12-11T14:03:02.289Z,53.19
2022-12-11T14:05:29.433Z,53.74
2022-12-11T14:07:57.892Z,54.28
2022-12-11T14:10:27.617Z,53.27
2022-12-11T14:13:03.635Z,54.52
2022-12-11T14:15:31.797Z,54.05
2022-12-11T14:17:59.339Z,53.79
2022-12-11T14:20:27.869Z,53.62
2022-12-11T14:23:17.398Z,54.01
2022-12-11T14:25:59.728Z,53.45
2022-12-11T14:28:27.987Z,54.11
2022-12-11T14:30:57.463Z,53.47
2022-12-11T14:33:27.436Z,54.06
2022-12-11T14:35:54.995Z,53.57
2022-12-11T14:38:23.560Z,54.10
2022-12-11T14:40:53.617Z,53.37
2022-12-11T14:43:23.647Z,53.43
2022-12-11T14:45:54.603Z,55.30
2022-12-11T14:48:24.268Z,54.55
2022-12-11T14:50:55.506Z,54.35
2022-12-11T14:53:26.792Z,53.90
2022-12-11T14:55:54.041Z,53.50
2022-12-11T14:58:26.661Z,53.11
2022-12-11T15:01:08.142Z,52.90
2022-12-11T15:03:42.124Z,52.73
2022-12-11T15:06:28.645Z,53.42
2022-12-11T15:08:55.482Z,52.95
2022-12-11T15:11:22.370Z,52.57
2022-12-11T15:14:00.206Z,52.37
2022-12-11T15:16:28.434Z,52.01
2022-12-11T15:18:56.158Z,51.71
2022-12-11T15:21:34.400Z,51.53
2022-12-11T15:24:03.324Z,51.42
2022-12-11T15:26:36.590Z,51.29
2022-12-11T15:29:25.363Z,51.41
2022-12-11T15:32:01.909Z,50.85
2022-12-11T15:34:33.479Z,50.45
2022-12-11T15:36:59.987Z,50.51
2022-12-11T15:39:26.421Z,50.37
2022-12-11T15:41:52.859Z,49.80
2022-12-11T15:44:21.869Z,50.12
2022-12-11T15:46:48.552Z,50.39
2022-12-11T15:49:15.174Z,50.22
2022-12-11T15:51:43.377Z,50.25
2022-12-11T15:54:10.128Z,50.20
2022-12-11T15:56:36.571Z,49.87
2022-12-11T15:59:04.590Z,49.92
2022-12-11T16:01:31.111Z,49.98
2022-12-11T16:04:01.784Z,49.96
2022-12-11T16:06:31.293Z,51.07
2022-12-11T16:08:57.729Z,51.10
2022-12-11T16:11:24.258Z,50.63
2022-12-11T16:13:51.172Z,51.14
2022-12-11T16:16:17.620Z,50.83
2022-12-11T16:18:44.127Z,50.40
2022-12-11T16:21:10.588Z,51.08
2022-12-11T16:23:37.057Z,51.36
2022-12-11T16:26:09.165Z,51.92
2022-12-11T16:28:35.643Z,51.51
2022-12-11T16:31:02.811Z,51.48
2022-12-11T16:33:29.453Z,51.38
2022-12-11T16:35:55.984Z,51.13
2022-12-11T16:38:22.521Z,50.81
2022-12-11T16:40:48.959Z,51.07
2022-12-11T16:43:15.431Z,51.20
2022-12-11T16:45:43.018Z,51.20
2022-12-11T16:48:09.757Z,50.92
2022-12-11T16:50:39.768Z,50.78
2022-12-11T16:53:06.251Z,51.29
2022-12-11T16:55:33.369Z,51.11
2022-12-11T16:57:59.809Z,51.51
2022-12-11T17:00:26.462Z,51.23
2022-12-11T17:02:53.068Z,51.63
2022-12-11T17:05:20.030Z,51.66
2022-12-11T17:07:46.560Z,51.75
2022-12-11T17:10:13.169Z,51.20
2022-12-11T17:12:39.691Z,51.62
2022-12-11T17:15:06.721Z,51.03
2022-12-11T17:17:33.270Z,51.55
2022-12-11T17:19:59.898Z,51.56
2022-12-11T17:22:26.394Z,51.42
2022-12-11T17:24:52.882Z,51.58
2022-12-11T17:27:19.410Z,51.78
2022-12-11T17:29:47.277Z,51.92
2022-12-11T17:32:13.862Z,51.51
2022-12-11T17:34:40.315Z,51.63
2022-12-11T17:37:06.950Z,51.76
2022-12-11T17:39:33.445Z,51.40
2022-12-11T17:42:00.356Z,51.57
2022-12-11T17:44:30.244Z,51.51
2022-12-11T17:46:58.055Z,52.58
2022-12-11T17:49:24.624Z,52.48
2022-12-11T17:51:53.092Z,52.04
2022-12-11T17:54:19.983Z,51.82
2022-12-11T17:56:46.565Z,52.21
2022-12-11T17:59:13.201Z,52.61
2022-12-11T18:01:39.968Z,52.46
2022-12-11T18:04:06.570Z,52.33
2022-12-11T18:06:33.196Z,52.40
2022-12-11T18:08:59.707Z,52.43
2022-12-11T18:11:26.589Z,52.92
2022-12-11T18:13:53.224Z,52.58
2022-12-11T18:16:29.005Z,52.49
2022-12-11T18:18:56.504Z,52.32
2022-12-11T18:21:25.970Z,53.37
2022-12-11T18:23:53.130Z,53.37
2022-12-11T18:26:20.477Z,53.78
2022-12-11T18:28:48.288Z,54.01
2022-12-11T18:31:15.454Z,54.22
2022-12-11T18:33:44.004Z,54.83
2022-12-11T18:36:11.838Z,55.04
2022-12-11T18:38:39.282Z,54.82
2022-12-11T18:41:07.742Z,54.59
2022-12-11T18:43:35.024Z,54.68
2022-12-11T18:46:08.909Z,55.18
2022-12-11T18:48:35.953Z,54.95
2022-12-11T18:51:06.825Z,54.46
2022-12-11T18:53:34.714Z,54.16
2022-12-11T18:56:06.833Z,54.86
2022-12-11T18:58:33.550Z,54.61
2022-12-11T19:01:05.009Z,54.02
2022-12-11T19:03:31.472Z,53.45
2022-12-11T19:06:15.008Z,53.60
2022-12-11T19:08:41.849Z,53.59
2022-12-11T19:11:08.558Z,53.66
2022-12-11T19:13:35.390Z,53.20
2022-12-11T19:16:02.091Z,52.99
2022-12-11T19:18:28.775Z,53.44
2022-12-11T19:21:04.956Z,52.95
2022-12-11T19:23:34.801Z,52.98
2022-12-11T19:26:01.614Z,52.88
2022-12-11T19:28:28.094Z,52.91
2022-12-11T19:30:54.634Z,52.62
2022-12-11T19:33:21.126Z,52.46
2022-12-11T19:35:47.874Z,52.59
2022-12-11T19:38:14.647Z,54.06
2022-12-11T19:40:44.710Z,53.25
2022-12-11T19:43:11.627Z,53.15
2022-12-11T19:45:38.356Z,53.01
2022-12-11T19:48:05.801Z,52.62
2022-12-11T19:50:35.286Z,52.55
2022-12-11T19:53:01.724Z,52.30
2022-12-11T19:55:28.815Z,52.41
2022-12-11T19:57:55.420Z,52.55
2022-12-11T20:00:21.920Z,52.71
2022-12-11T20:02:49.044Z,52.14
2022-12-11T20:05:15.794Z,52.14
2022-12-11T20:07:44.459Z,52.46
2022-12-11T20:10:11.501Z,52.39
2022-12-11T20:12:38.005Z,52.22
2022-12-11T20:15:06.095Z,52.70
2022-12-11T20:17:34.095Z,52.77
2022-12-11T20:20:00.820Z,52.54
2022-12-11T20:22:27.542Z,52.59
2022-12-11T20:24:54.044Z,52.61
2022-12-11T20:27:30.484Z,52.69
2022-12-11T20:29:57.060Z,52.61
2022-12-11T20:32:23.490Z,52.48
2022-12-11T20:34:49.935Z,53.40
2022-12-11T20:37:16.965Z,53.14
2022-12-11T20:39:43.748Z,53.70
2022-12-11T20:42:10.922Z,53.14
2022-12-11T20:44:37.793Z,53.50
2022-12-11T20:47:06.631Z,52.98
2022-12-11T20:49:33.266Z,53.00
2022-12-11T20:51:59.798Z,53.37
2022-12-11T20:54:26.294Z,53.98
2022-12-11T20:56:52.827Z,53.60
2022-12-11T20:59:19.357Z,53.86
2022-12-11T21:01:46.210Z,53.79
2022-12-11T21:04:12.849Z,53.63
2022-12-11T21:06:40.581Z,53.60
2022-12-11T21:09:12.832Z,53.43
2022-12-11T21:11:39.480Z,54.16
2022-12-11T21:14:06.325Z,54.19
2022-12-11T21:16:34.515Z,54.21
2022-12-11T21:19:01.552Z,54.00
2022-12-11T21:21:28.463Z,54.21
2022-12-11T21:23:55.246Z,54.59
2022-12-11T21:26:21.803Z,54.88
2022-12-11T21:28:48.365Z,55.31
2022-12-11T21:31:16.909Z,54.99
2022-12-11T21:33:43.713Z,55.89
2022-12-11T21:36:13.227Z,56.69
2022-12-11T21:38:40.516Z,56.25
2022-12-11T21:41:21.629Z,55.95
2022-12-11T21:46:38.120Z,56.54
2022-12-11T21:49:08.164Z,57.21
2022-12-11T21:51:41.391Z,56.87
2022-12-11T21:54:13.470Z,56.18
2022-12-11T21:56:40.750Z,57.00
2022-12-11T21:59:07.510Z,57.54
2022-12-11T22:01:41.865Z,56.76
2022-12-11T22:04:10.257Z,56.24
2022-12-11T22:06:36.809Z,55.81
2022-12-11T22:09:04.262Z,55.73
2022-12-11T22:11:31.860Z,55.67
2022-12-11T22:13:58.384Z,55.71
2022-12-11T22:16:24.953Z,55.48
2022-12-11T22:18:51.651Z,55.95
2022-12-11T22:21:18.238Z,55.27
2022-12-11T22:23:44.793Z,54.87
2022-12-11T22:26:16.589Z,55.81
2022-12-11T22:28:43.132Z,55.36
2022-12-11T22:31:11.732Z,54.85
2022-12-11T22:33:38.455Z,54.50
2022-12-11T22:36:05.048Z,54.42
2022-12-11T22:38:31.503Z,54.74
2022-12-11T22:40:58.201Z,55.54
2022-12-11T22:43:24.667Z,55.31
2022-12-11T22:45:51.436Z,55.38
2022-12-11T22:48:18.347Z,54.92
2022-12-11T22:50:44.890Z,54.87
2022-12-11T22:53:11.655Z,54.76
2022-12-11T22:55:39.941Z,54.26
2022-12-11T22:58:07.009Z,54.80
2022-12-11T23:00:33.839Z,54.43
2022-12-11T23:03:00.556Z,54.46
2022-12-11T23:05:27.143Z,54.63
2022-12-11T23:07:53.734Z,55.10
2022-12-11T23:10:21.017Z,54.88
2022-12-11T23:12:47.647Z,55.15
2022-12-11T23:15:14.502Z,55.56
2022-12-11T23:17:41.133Z,54.98
2022-12-11T23:20:08.195Z,54.96
2022-12-11T23:22:34.888Z,54.51
2022-12-11T23:25:01.356Z,54.24
2022-12-11T23:27:28.200Z,54.43
2022-12-11T23:29:55.189Z,54.42
2022-12-11T23:32:21.763Z,54.36
2022-12-11T23:34:48.200Z,54.52
2022-12-11T23:37:15.378Z,54.96
2022-12-11T23:39:41.854Z,54.50
2022-12-11T23:42:09.361Z,53.94
2022-12-11T23:44:35.806Z,54.33
2022-12-11T23:47:02.283Z,54.46
2022-12-11T23:49:28.736Z,55.05
2022-12-11T23:51:56.041Z,55.11
2022-12-11T23:54:22.502Z,55.05
2022-12-11T23:56:48.957Z,54.98
2022-12-11T23:59:15.806Z,55.21
